createdAt,value
2024-01-18T04:21:20.406Z,19.42
2024-01-18T04:22:20.374Z,19.47
2024-01-18T04:23:20.380Z,19.50
2024-01-18T04:24:20.432Z,19.52
2024-01-18T04:25:20.374Z,19.54
2024-01-18T04:26:20.376Z,19.55
2024-01-18T04:27:20.429Z,19.56
2024-01-18T04:28:20.396Z,19.56
2024-01-18T04:29:20.404Z,19.58
2024-01-18T04:30:20.429Z,19.59
2024-01-18T04:31:27.599Z,19.56
2024-01-18T04:32:27.633Z,19.57
2024-01-18T04:33:27.624Z,19.57
2024-01-18T04:34:27.636Z,19.58
2024-01-18T04:35:27.576Z,19.59
2024-01-18T04:36:27.651Z,19.59
2024-01-18T04:37:27.597Z,19.59
2024-01-18T04:38:27.571Z,19.58
2024-01-18T04:39:27.650Z,19.59
2024-01-18T04:40:27.597Z,19.58
2024-01-18T04:41:27.586Z,19.58
2024-01-18T04:42:27.603Z,19.59
2024-01-18T04:43:27.582Z,19.58
2024-01-18T04:44:27.596Z,19.58
2024-01-18T04:45:27.673Z,19.59
2024-01-18T04:46:27.626Z,19.58
2024-01-18T04:47:27.615Z,19.59
2024-01-18T04:48:27.616Z,19.58
2024-01-18T04:49:27.641Z,19.59
2024-01-18T04:50:27.598Z,19.59
2024-01-18T04:51:27.626Z,19.58
2024-01-18T04:52:27.599Z,19.58
2024-01-18T04:53:27.622Z,19.58
2024-01-18T04:54:27.672Z,19.58
2024-01-18T04:55:27.579Z,19.58
2024-01-18T04:56:27.600Z,19.59
2024-01-18T04:57:27.638Z,19.58
2024-01-18T04:58:27.631Z,19.59
2024-01-18T04:59:27.627Z,19.59
2024-01-18T05:00:27.633Z,19.58
2024-01-18T05:01:27.644Z,19.59
2024-01-18T05:02:27.642Z,19.59
2024-01-18T05:03:27.670Z,19.58
2024-01-18T05:04:27.731Z,19.58
2024-01-18T05:05:27.841Z,19.59
2024-01-18T05:06:28.476Z,19.58
2024-01-18T05:07:27.884Z,19.58
2024-01-18T05:08:27.967Z,19.59
2024-01-18T05:09:27.968Z,19.59
2024-01-18T05:10:28.029Z,19.59
2024-01-18T05:11:28.105Z,19.58
2024-01-18T05:12:28.168Z,19.58
2024-01-18T05:13:28.198Z,19.58
2024-01-18T05:14:28.295Z,19.58
2024-01-18T05:15:28.382Z,19.58
2024-01-18T05:16:28.366Z,19.58
2024-01-18T05:17:28.480Z,19.58
2024-01-18T05:18:28.563Z,19.58
2024-01-18T05:19:28.598Z,19.58
2024-01-18T05:20:28.624Z,19.57
2024-01-18T05:21:28.711Z,19.57
2024-01-18T05:22:28.721Z,19.57
2024-01-18T05:23:28.803Z,19.58
2024-01-18T05:24:28.893Z,19.58
2024-01-18T05:25:28.903Z,19.58
2024-01-18T05:26:28.977Z,19.58
2024-01-18T05:27:29.105Z,19.58
2024-01-18T05:28:29.083Z,19.57
2024-01-18T05:29:29.151Z,19.58
2024-01-18T05:30:29.256Z,19.57
2024-01-18T05:31:29.251Z,19.58
2024-01-18T05:32:29.355Z,19.57
2024-01-18T05:33:29.553Z,19.57
2024-01-18T05:34:29.529Z,19.57
2024-01-18T05:35:29.509Z,19.57
2024-01-18T05:36:29.612Z,19.57
2024-01-18T05:37:29.602Z,19.57
2024-01-18T05:38:31.639Z,19.57
2024-01-18T05:39:29.716Z,19.58
2024-01-18T05:40:29.657Z,19.58
2024-01-18T05:41:29.703Z,19.58
2024-01-18T05:42:29.726Z,19.57
2024-01-18T05:43:29.673Z,19.57
2024-01-18T05:44:29.682Z,19.57
2024-01-18T05:45:29.678Z,19.57
2024-01-18T05:46:29.681Z,19.58
2024-01-18T05:47:29.695Z,19.58
2024-01-18T05:48:29.707Z,19.57
2024-01-18T05:49:29.729Z,19.57
2024-01-18T05:50:29.687Z,19.57
2024-01-18T05:51:29.701Z,19.57
2024-01-18T05:52:29.692Z,19.57
2024-01-18T05:53:29.682Z,19.58
2024-01-18T05:54:29.722Z,19.58
2024-01-18T05:55:29.673Z,19.59
2024-01-18T05:56:29.704Z,19.59
2024-01-18T05:57:29.743Z,19.60
2024-01-18T05:58:29.681Z,19.60
2024-01-18T05:59:29.700Z,19.60
2024-01-18T06:00:29.784Z,19.61
2024-01-18T06:01:29.701Z,19.62
2024-01-18T06:02:29.721Z,19.62
2024-01-18T06:03:29.733Z,19.63
2024-01-18T06:04:29.765Z,19.63
2024-01-18T06:05:29.667Z,19.64
2024-01-18T06:06:29.751Z,19.64
2024-01-18T06:07:29.739Z,19.65
2024-01-18T06:08:29.727Z,19.65
2024-01-18T06:09:29.802Z,19.66
2024-01-18T06:10:29.827Z,19.66
2024-01-18T06:11:29.838Z,19.67
2024-01-18T06:12:30.012Z,19.68
2024-01-18T06:13:29.966Z,19.68
2024-01-18T06:14:30.027Z,19.69
2024-01-18T06:15:30.058Z,19.70
2024-01-18T06:16:30.089Z,19.70
2024-01-18T06:17:30.274Z,19.70
2024-01-18T06:18:30.377Z,19.72
2024-01-18T06:19:30.368Z,19.72
2024-01-18T06:20:30.283Z,19.72
2024-01-18T06:21:30.350Z,19.74
2024-01-18T06:22:30.372Z,19.75
2024-01-18T06:23:30.433Z,19.75
2024-01-18T06:24:30.659Z,19.76
2024-01-18T06:25:30.492Z,19.76
2024-01-18T06:26:30.535Z,19.77
2024-01-18T06:27:30.662Z,19.78
2024-01-18T06:28:30.621Z,19.77
2024-01-18T06:29:30.659Z,19.78
2024-01-18T06:30:30.724Z,19.79
2024-01-18T06:31:30.764Z,19.79
2024-01-18T06:32:30.803Z,19.80
2024-01-18T06:33:31.008Z,19.80
2024-01-18T06:34:30.920Z,19.80
2024-01-18T06:35:30.934Z,19.81
2024-01-18T06:36:31.109Z,19.81
2024-01-18T06:37:31.039Z,19.82
2024-01-18T06:38:31.079Z,19.83
2024-01-18T06:39:31.198Z,19.86
2024-01-18T06:40:31.194Z,19.90
2024-01-18T06:41:31.258Z,19.92
2024-01-18T06:42:31.314Z,19.95
2024-01-18T06:43:31.298Z,19.99
2024-01-18T06:44:31.358Z,20.02
2024-01-18T06:45:31.462Z,20.05
2024-01-18T06:46:31.496Z,20.11
2024-01-18T06:47:31.480Z,20.15
2024-01-18T06:48:31.556Z,20.17
2024-01-18T06:49:31.624Z,20.24
2024-01-18T06:50:31.584Z,20.32
2024-01-18T06:51:31.694Z,20.35
2024-01-18T06:52:31.633Z,20.38
2024-01-18T06:53:31.798Z,20.41
2024-01-18T06:54:31.773Z,20.44
2024-01-18T06:55:31.756Z,20.46
2024-01-18T06:56:31.797Z,20.50
2024-01-18T06:57:31.818Z,20.53
2024-01-18T06:58:31.862Z,20.55
2024-01-18T06:59:31.829Z,20.58
2024-01-18T07:00:32.119Z,20.60
2024-01-18T07:01:31.945Z,20.62
2024-01-18T07:02:31.919Z,20.63
2024-01-18T07:03:31.942Z,20.66
2024-01-18T07:04:31.984Z,20.69
2024-01-18T07:05:31.962Z,20.71
2024-01-18T07:06:32.028Z,20.74
2024-01-18T07:07:31.992Z,20.76
2024-01-18T07:08:32.019Z,20.79
2024-01-18T07:09:32.049Z,20.81
2024-01-18T07:10:32.005Z,20.82
2024-01-18T07:11:32.015Z,20.83
2024-01-18T07:12:32.057Z,20.84
2024-01-18T07:13:32.028Z,20.86
2024-01-18T07:14:34.375Z,20.87
2024-01-18T07:15:32.124Z,20.89
2024-01-18T07:16:32.060Z,20.91
2024-01-18T07:17:32.239Z,20.93
2024-01-18T07:18:32.083Z,20.95
2024-01-18T07:19:32.144Z,20.97
2024-01-18T07:20:32.083Z,20.99
2024-01-18T07:21:32.110Z,21.00
2024-01-18T07:22:32.078Z,21.01
2024-01-18T07:23:32.067Z,21.03
2024-01-18T07:24:32.205Z,21.05
2024-01-18T07:25:32.052Z,21.05
2024-01-18T07:26:32.062Z,21.06
2024-01-18T07:27:32.105Z,21.08
2024-01-18T07:28:32.057Z,21.09
2024-01-18T07:29:32.080Z,21.09
2024-01-18T07:30:32.073Z,21.10
2024-01-18T07:31:32.071Z,21.12
2024-01-18T07:32:32.093Z,21.14
2024-01-18T07:33:32.226Z,21.18
2024-01-18T07:34:32.212Z,21.20
2024-01-18T07:35:32.067Z,21.23
2024-01-18T07:36:32.176Z,21.25
2024-01-18T07:37:32.075Z,21.26
2024-01-18T07:38:32.095Z,21.29
2024-01-18T07:39:32.107Z,21.30
2024-01-18T07:40:32.075Z,21.32
2024-01-18T07:41:32.078Z,21.34
2024-01-18T07:42:32.170Z,21.35
2024-01-18T07:43:32.101Z,21.36
2024-01-18T07:44:32.091Z,21.38
2024-01-18T07:45:32.113Z,21.42
2024-01-18T07:46:32.093Z,21.42
2024-01-18T07:47:32.099Z,21.42
2024-01-18T07:48:32.102Z,21.40
2024-01-18T07:49:32.333Z,21.39
2024-01-18T07:50:35.874Z,21.39
2024-01-18T07:51:33.092Z,21.38
2024-01-18T07:52:32.088Z,21.39
2024-01-18T07:53:32.071Z,21.38
2024-01-18T07:54:32.154Z,21.37
2024-01-18T07:55:32.200Z,21.37
2024-01-18T07:56:32.100Z,21.37
2024-01-18T07:57:32.091Z,21.37
2024-01-18T07:58:32.102Z,21.36
2024-01-18T07:59:32.094Z,21.35
2024-01-18T08:00:32.905Z,21.35
2024-01-18T08:01:35.686Z,21.35
2024-01-18T08:02:33.255Z,21.34
2024-01-18T08:03:32.309Z,21.33
2024-01-18T08:04:32.294Z,21.33
2024-01-18T08:05:32.303Z,21.34
2024-01-18T08:06:32.352Z,21.33
2024-01-18T08:07:32.260Z,21.34
2024-01-18T08:08:32.792Z,21.34
2024-01-18T08:09:32.384Z,21.34
2024-01-18T08:10:32.242Z,21.35
2024-01-18T08:11:32.266Z,21.34
2024-01-18T08:12:32.419Z,21.35
2024-01-18T08:13:32.385Z,21.35
2024-01-18T08:14:32.443Z,21.35
2024-01-18T08:15:32.527Z,21.36
2024-01-18T08:16:32.521Z,21.38
2024-01-18T08:17:32.722Z,21.37
2024-01-18T08:18:32.776Z,21.38
2024-01-18T08:19:32.905Z,21.38
2024-01-18T08:20:32.755Z,21.38
2024-01-18T08:21:32.891Z,21.39
2024-01-18T08:22:32.831Z,21.38
2024-01-18T08:23:32.890Z,21.38
2024-01-18T08:24:32.942Z,21.39
2024-01-18T08:25:33.003Z,21.39
2024-01-18T08:26:33.029Z,21.39
2024-01-18T08:27:33.145Z,21.39
2024-01-18T08:28:33.134Z,21.39
2024-01-18T08:29:33.181Z,21.39
2024-01-18T08:30:33.260Z,21.40
2024-01-18T08:31:33.264Z,21.41
2024-01-18T08:33:00.972Z,21.41
2024-01-18T08:34:00.981Z,21.42
2024-01-18T08:35:00.921Z,21.42
2024-01-18T08:36:00.939Z,21.42
2024-01-18T08:37:00.962Z,21.43
2024-01-18T08:38:00.905Z,21.45
2024-01-18T08:39:01.013Z,21.44
2024-01-18T08:40:01.060Z,21.44
2024-01-18T08:41:00.910Z,21.45
2024-01-18T08:42:00.948Z,21.45
2024-01-18T08:43:00.929Z,21.45
2024-01-18T08:44:00.943Z,21.46
2024-01-18T08:45:00.924Z,21.46
2024-01-18T08:46:00.969Z,21.47
2024-01-18T08:47:00.906Z,21.49
2024-01-18T08:48:00.957Z,21.51
2024-01-18T08:49:00.996Z,21.53
2024-01-18T08:50:00.949Z,21.57
2024-01-18T08:51:01.048Z,21.60
2024-01-18T08:52:00.984Z,21.63
2024-01-18T08:53:00.930Z,21.64
2024-01-18T08:54:00.949Z,21.66
2024-01-18T08:55:00.948Z,21.68
2024-01-18T08:56:00.932Z,21.70
2024-01-18T08:57:00.947Z,21.72
2024-01-18T08:58:00.973Z,21.75
2024-01-18T08:59:00.973Z,21.78
2024-01-18T09:00:01.040Z,21.80
2024-01-18T09:01:01.124Z,21.83
2024-01-18T09:02:06.931Z,21.85
2024-01-18T09:03:02.133Z,21.86
2024-01-18T09:04:01.076Z,21.88
2024-01-18T09:05:01.042Z,21.89
2024-01-18T09:06:01.000Z,21.90
2024-01-18T09:07:01.056Z,21.92
2024-01-18T09:08:03.759Z,21.92
2024-01-18T09:09:01.033Z,21.93
2024-01-18T09:10:00.970Z,21.95
2024-01-18T09:11:01.029Z,21.96
2024-01-18T09:12:00.961Z,21.98
2024-01-18T09:13:00.951Z,21.98
2024-01-18T09:14:00.949Z,22.00
2024-01-18T09:15:00.969Z,22.01
2024-01-18T09:16:01.011Z,22.02
2024-01-18T09:17:00.983Z,22.02
2024-01-18T09:18:00.993Z,22.01
2024-01-18T09:19:10.780Z,22.03
2024-01-18T09:20:02.137Z,22.04
2024-01-18T09:21:01.187Z,22.05
2024-01-18T09:22:01.000Z,22.06
2024-01-18T09:23:09.078Z,22.08
2024-01-18T09:24:01.996Z,22.08
2024-01-18T09:25:01.129Z,22.09
2024-01-18T09:26:01.001Z,22.09
2024-01-18T09:27:00.998Z,22.10
2024-01-18T09:28:00.989Z,22.10
2024-01-18T09:29:01.002Z,22.10
2024-01-18T09:30:01.032Z,22.11
2024-01-18T09:31:01.212Z,22.12
2024-01-18T09:32:01.004Z,22.13
2024-01-18T09:33:01.014Z,22.13
2024-01-18T09:34:01.057Z,22.15
2024-01-18T09:35:01.064Z,22.16
2024-01-18T09:36:00.990Z,22.17
2024-01-18T09:37:01.165Z,22.18
2024-01-18T09:38:01.015Z,22.19
2024-01-18T09:39:01.023Z,22.19
2024-01-18T09:40:01.115Z,22.20
2024-01-18T09:41:01.035Z,22.19
2024-01-18T09:42:01.017Z,22.20
2024-01-18T09:43:01.022Z,22.21
2024-01-18T09:44:00.982Z,22.23
2024-01-18T09:45:01.039Z,22.21
2024-01-18T09:46:01.024Z,22.20
2024-01-18T09:47:04.533Z,22.19
2024-01-18T09:48:04.593Z,22.20
2024-01-18T09:49:05.123Z,22.21
2024-01-18T09:50:04.584Z,22.23
2024-01-18T09:51:04.542Z,22.26
2024-01-18T09:52:04.526Z,22.30
2024-01-18T09:53:04.561Z,22.32
2024-01-18T09:54:04.608Z,22.32
2024-01-18T09:55:04.628Z,22.33
2024-01-18T09:56:04.554Z,22.31
2024-01-18T09:57:04.536Z,22.31
2024-01-18T09:58:04.553Z,22.32
2024-01-18T09:59:04.546Z,22.31
2024-01-18T10:00:06.537Z,22.33
2024-01-18T10:01:04.676Z,22.33
2024-01-18T10:02:04.559Z,22.33
2024-01-18T10:03:04.575Z,22.34
2024-01-18T10:04:04.550Z,22.35
2024-01-18T10:05:04.585Z,22.34
2024-01-18T10:06:04.600Z,22.33
2024-01-18T10:07:05.434Z,22.31
2024-01-18T10:08:04.737Z,22.29
2024-01-18T10:09:04.576Z,22.29
2024-01-18T10:10:04.570Z,22.29
2024-01-18T10:11:04.574Z,22.29
2024-01-18T10:12:04.582Z,22.28
2024-01-18T10:13:06.207Z,22.28
2024-01-18T10:14:04.564Z,22.28
2024-01-18T10:15:04.604Z,22.29
2024-01-18T10:16:04.578Z,22.30
2024-01-18T10:17:04.610Z,22.30
2024-01-18T10:18:04.660Z,22.30
2024-01-18T10:19:04.705Z,22.32
2024-01-18T10:20:04.621Z,22.32
2024-01-18T10:21:04.583Z,22.33
2024-01-18T10:22:04.599Z,22.35
2024-01-18T10:23:04.967Z,22.36
2024-01-18T10:24:04.592Z,22.37
2024-01-18T10:25:04.610Z,22.38
2024-01-18T10:26:04.701Z,22.39
2024-01-18T10:27:04.793Z,22.39
2024-01-18T10:28:04.870Z,22.40
2024-01-18T10:29:04.994Z,22.42
2024-01-18T10:30:04.967Z,22.41
2024-01-18T10:31:05.024Z,22.43
2024-01-18T10:32:05.157Z,22.44
2024-01-18T10:33:05.228Z,22.46
2024-01-18T10:34:05.385Z,22.47
2024-01-18T10:35:05.483Z,22.48
2024-01-18T10:36:05.375Z,22.47
2024-01-18T10:37:05.441Z,22.44
2024-01-18T10:38:05.506Z,22.43
2024-01-18T10:39:05.596Z,22.42
2024-01-18T10:40:05.654Z,22.41
2024-01-18T10:41:05.704Z,22.41
2024-01-18T10:42:05.891Z,22.40
2024-01-18T10:43:05.867Z,22.38
2024-01-18T10:44:06.744Z,22.39
2024-01-18T10:45:06.250Z,22.39
2024-01-18T10:46:06.084Z,22.41
2024-01-18T10:47:06.130Z,22.43
2024-01-18T10:48:06.251Z,22.46
2024-01-18T10:49:06.341Z,22.48
2024-01-18T10:50:06.394Z,22.49
2024-01-18T10:51:06.469Z,22.51
2024-01-18T10:52:06.493Z,22.52
2024-01-18T10:53:06.538Z,22.50
2024-01-18T10:54:08.711Z,22.52
2024-01-18T10:55:09.117Z,22.52
2024-01-18T10:56:06.779Z,22.52
2024-01-18T10:57:06.684Z,22.53
2024-01-18T10:58:06.609Z,22.53
2024-01-18T10:59:06.573Z,22.55
2024-01-18T11:00:06.661Z,22.56
2024-01-18T11:01:06.718Z,22.59
2024-01-18T11:02:06.614Z,22.60
2024-01-18T11:03:06.678Z,22.60
2024-01-18T11:04:06.612Z,22.65
2024-01-18T11:05:06.653Z,22.68
2024-01-18T11:06:06.691Z,22.70
2024-01-18T11:07:06.756Z,22.70
2024-01-18T11:08:06.630Z,22.69
2024-01-18T11:09:06.685Z,22.69
2024-01-18T11:10:06.610Z,22.71
2024-01-18T11:11:06.627Z,22.71
2024-01-18T11:12:06.829Z,22.70
2024-01-18T11:13:06.634Z,22.72
2024-01-18T11:14:06.597Z,22.74
2024-01-18T11:15:06.728Z,22.74
2024-01-18T11:16:06.661Z,22.75
2024-01-18T11:17:07.598Z,22.76
2024-01-18T11:18:06.765Z,22.76
2024-01-18T11:19:06.724Z,22.76
2024-01-18T11:20:06.696Z,22.77
2024-01-18T11:21:06.633Z,22.79
2024-01-18T11:22:06.654Z,22.79
2024-01-18T11:23:06.749Z,22.80
2024-01-18T11:24:06.758Z,22.81
2024-01-18T11:25:06.643Z,22.81
2024-01-18T11:26:06.700Z,22.82
2024-01-18T11:27:06.766Z,22.82
2024-01-18T11:28:06.696Z,22.83
2024-01-18T11:29:06.733Z,22.83
2024-01-18T11:30:06.691Z,22.82
2024-01-18T11:31:06.831Z,22.81
2024-01-18T11:32:06.844Z,22.80
2024-01-18T11:33:06.696Z,22.79
2024-01-18T11:34:06.747Z,22.77
2024-01-18T11:35:06.733Z,22.74
2024-01-18T11:36:06.764Z,22.72
2024-01-18T11:37:06.671Z,22.68
2024-01-18T11:38:06.646Z,22.66
2024-01-18T11:39:06.694Z,22.62
2024-01-18T11:40:06.667Z,22.60
2024-01-18T11:41:06.676Z,22.58
2024-01-18T11:42:06.685Z,22.53
2024-01-18T11:43:06.795Z,22.52
2024-01-18T11:44:06.809Z,22.49
2024-01-18T11:45:06.890Z,22.47
2024-01-18T11:46:07.156Z,22.46
2024-01-18T11:47:07.032Z,22.43
2024-01-18T11:48:07.134Z,22.43
2024-01-18T11:49:07.303Z,22.42
2024-01-18T11:50:07.384Z,22.42
2024-01-18T11:51:07.267Z,22.41
2024-01-18T11:52:07.364Z,22.40
2024-01-18T11:53:07.414Z,22.38
2024-01-18T11:54:07.622Z,22.37
2024-01-18T11:55:07.568Z,22.36
2024-01-18T11:56:07.645Z,22.34
2024-01-18T11:57:07.735Z,22.32
2024-01-18T11:58:07.717Z,22.30
2024-01-18T11:59:07.753Z,22.28
2024-01-18T12:00:07.907Z,22.26
2024-01-18T12:01:07.841Z,22.25
2024-01-18T12:02:07.776Z,22.24
2024-01-18T12:03:07.886Z,22.24
2024-01-18T12:04:07.880Z,22.23
2024-01-18T12:05:07.874Z,22.22
2024-01-18T12:06:07.852Z,22.20
2024-01-18T12:07:07.968Z,22.20
2024-01-18T12:08:07.848Z,22.20
2024-01-18T12:09:07.996Z,22.18
2024-01-18T12:10:07.879Z,22.18
2024-01-18T12:11:07.864Z,22.17
2024-01-18T12:12:08.097Z,22.16
2024-01-18T12:13:07.881Z,22.15
2024-01-18T12:14:07.937Z,22.14
2024-01-18T12:15:08.125Z,22.14
2024-01-18T12:16:07.890Z,22.12
2024-01-18T12:17:07.899Z,22.11
2024-01-18T12:18:07.978Z,22.10
2024-01-18T12:19:07.965Z,22.09
2024-01-18T12:20:08.055Z,22.07
2024-01-18T12:21:07.934Z,22.06
2024-01-18T12:22:07.941Z,22.06
2024-01-18T12:23:07.935Z,22.06
2024-01-18T12:24:07.990Z,22.03
2024-01-18T12:25:08.002Z,22.03
2024-01-18T12:26:07.963Z,22.01
2024-01-18T12:27:08.005Z,22.00
2024-01-18T12:28:08.008Z,22.00
2024-01-18T12:29:08.028Z,21.98
2024-01-18T12:30:08.098Z,21.99
2024-01-18T12:31:08.064Z,21.97
2024-01-18T12:32:08.091Z,21.96
2024-01-18T12:33:08.151Z,21.94
2024-01-18T12:34:08.123Z,21.95
2024-01-18T12:35:08.124Z,21.94
2024-01-18T12:37:08.170Z,21.94
2024-01-18T12:38:08.158Z,21.93
2024-01-18T12:39:08.206Z,21.92
2024-01-18T12:40:08.194Z,21.92
2024-01-18T12:41:08.272Z,21.92
2024-01-18T12:42:08.220Z,21.91
2024-01-18T12:43:08.247Z,21.91
2024-01-18T12:44:08.251Z,21.92
2024-01-18T12:45:08.270Z,21.91
2024-01-18T12:46:08.369Z,21.90
2024-01-18T12:47:08.296Z,21.90
2024-01-18T12:48:08.504Z,21.91
2024-01-18T12:49:08.457Z,21.91
2024-01-18T12:50:08.448Z,21.92
2024-01-18T12:51:08.343Z,21.92
2024-01-18T12:52:08.392Z,21.94
2024-01-18T12:53:09.658Z,21.94
2024-01-18T12:54:08.414Z,21.95
2024-01-18T12:55:08.418Z,21.95
2024-01-18T12:56:08.433Z,21.95
2024-01-18T12:57:08.413Z,21.95
2024-01-18T12:58:08.465Z,21.94
2024-01-18T12:59:08.475Z,21.93
2024-01-18T13:00:08.507Z,21.93
2024-01-18T13:01:08.649Z,21.92
2024-01-18T13:02:08.529Z,21.92
2024-01-18T13:03:08.527Z,21.92
2024-01-18T13:04:08.594Z,21.91
2024-01-18T13:05:08.581Z,21.90
2024-01-18T13:06:08.648Z,21.90
2024-01-18T13:07:08.669Z,21.91
2024-01-18T13:08:08.731Z,21.90
2024-01-18T13:09:08.645Z,21.91
2024-01-18T13:10:08.639Z,21.90
2024-01-18T13:11:08.658Z,21.90
2024-01-18T13:12:08.708Z,21.89
2024-01-18T13:13:08.699Z,21.88
2024-01-18T13:14:08.718Z,21.88
2024-01-18T13:15:08.756Z,21.87
2024-01-18T13:16:08.810Z,21.85
2024-01-18T13:17:08.814Z,21.85
2024-01-18T13:18:08.873Z,21.84
2024-01-18T13:19:08.906Z,21.83
2024-01-18T13:20:08.991Z,21.83
2024-01-18T13:21:08.889Z,21.81
2024-01-18T13:22:08.934Z,21.81
2024-01-18T13:23:08.936Z,21.80
2024-01-18T13:24:08.961Z,21.80
2024-01-18T13:25:09.037Z,21.80
2024-01-18T13:26:09.017Z,21.80
2024-01-18T13:27:09.046Z,21.80
2024-01-18T13:28:09.075Z,21.80
2024-01-18T13:29:09.134Z,21.79
2024-01-18T13:30:09.144Z,21.79
2024-01-18T13:31:09.178Z,21.79
2024-01-18T13:32:09.212Z,21.78
2024-01-18T13:33:11.472Z,21.78
2024-01-18T13:34:09.253Z,21.76
2024-01-18T13:35:09.345Z,21.75
2024-01-18T13:36:09.250Z,21.74
2024-01-18T13:37:12.960Z,21.74
2024-01-18T13:38:11.942Z,21.72
2024-01-18T13:39:09.236Z,21.71
2024-01-18T13:40:09.258Z,21.71
2024-01-18T13:41:09.250Z,21.71
2024-01-18T13:42:09.243Z,21.70
2024-01-18T13:43:09.232Z,21.69
2024-01-18T13:44:09.265Z,21.69
2024-01-18T13:45:09.247Z,21.69
2024-01-18T13:46:09.304Z,21.67
2024-01-18T13:47:09.245Z,21.67
2024-01-18T13:48:09.330Z,21.67
2024-01-18T13:49:09.273Z,21.66
2024-01-18T13:50:09.351Z,21.66
2024-01-18T13:51:09.256Z,21.66
2024-01-18T13:52:09.297Z,21.66
2024-01-18T13:53:09.248Z,21.66
2024-01-18T13:54:09.261Z,21.66
2024-01-18T13:55:09.445Z,21.66
2024-01-18T13:56:10.448Z,21.65
2024-01-18T13:57:09.228Z,21.65
2024-01-18T13:58:09.276Z,21.65
2024-01-18T13:59:09.271Z,21.65
2024-01-18T14:00:09.250Z,21.64
2024-01-18T14:01:09.328Z,21.64
2024-01-18T14:02:09.256Z,21.63
2024-01-18T14:03:09.286Z,21.63
2024-01-18T14:04:09.260Z,21.63
2024-01-18T14:05:09.289Z,21.62
2024-01-18T14:06:09.330Z,21.61
2024-01-18T14:07:09.492Z,21.61
2024-01-18T14:08:10.114Z,21.60
2024-01-18T14:09:09.393Z,21.60
2024-01-18T14:10:09.505Z,21.60
2024-01-18T14:11:12.438Z,21.60
2024-01-18T14:12:09.493Z,21.58
2024-01-18T14:13:09.494Z,21.58
2024-01-18T14:14:09.484Z,21.57
2024-01-18T14:15:09.514Z,21.57
2024-01-18T14:16:10.731Z,21.56
2024-01-18T14:17:09.506Z,21.57
2024-01-18T14:18:09.561Z,21.56
2024-01-18T14:19:09.557Z,21.57
2024-01-18T14:20:09.643Z,21.56
2024-01-18T14:21:09.705Z,21.57
2024-01-18T14:22:09.644Z,21.56
2024-01-18T14:23:09.490Z,21.56
2024-01-18T14:24:10.166Z,21.56
2024-01-18T14:25:09.533Z,21.56
2024-01-18T14:26:09.504Z,21.55
2024-01-18T14:27:09.503Z,21.54
2024-01-18T14:28:09.623Z,21.53
2024-01-18T14:29:09.573Z,21.53
2024-01-18T14:30:09.597Z,21.53
2024-01-18T14:31:09.675Z,21.52
2024-01-18T14:32:09.657Z,21.52
2024-01-18T14:33:09.776Z,21.52
2024-01-18T14:34:09.815Z,21.53
2024-01-18T14:35:09.835Z,21.52
2024-01-18T14:36:09.812Z,21.51
2024-01-18T14:37:09.892Z,21.52
2024-01-18T14:38:09.908Z,21.52
2024-01-18T14:39:09.927Z,21.52
2024-01-18T14:40:10.005Z,21.52
2024-01-18T14:41:10.021Z,21.53
2024-01-18T14:42:10.053Z,21.54
2024-01-18T14:43:10.095Z,21.54
2024-01-18T14:44:10.134Z,21.55
2024-01-18T14:45:10.203Z,21.56
2024-01-18T14:46:10.267Z,21.55
2024-01-18T14:47:10.271Z,21.55
2024-01-18T14:48:10.376Z,21.55
2024-01-18T14:49:10.405Z,21.55
2024-01-18T14:50:10.442Z,21.54
2024-01-18T14:51:10.467Z,21.54
2024-01-18T14:52:10.469Z,21.54
2024-01-18T14:53:10.546Z,21.54
2024-01-18T14:54:10.531Z,21.54
2024-01-18T14:55:10.616Z,21.54
2024-01-18T14:56:10.635Z,21.54
2024-01-18T14:57:10.679Z,21.55
2024-01-18T14:58:10.760Z,21.55
2024-01-18T14:59:10.771Z,21.55
2024-01-18T15:00:10.802Z,21.55
2024-01-18T15:01:10.917Z,21.55
2024-01-18T15:02:10.879Z,21.55
2024-01-18T15:03:10.956Z,21.55
2024-01-18T15:04:11.094Z,21.54
2024-01-18T15:05:11.194Z,21.53
2024-01-18T15:06:11.038Z,21.53
2024-01-18T15:07:11.161Z,21.52
2024-01-18T15:08:11.248Z,21.52
2024-01-18T15:09:11.200Z,21.53
2024-01-18T15:10:11.307Z,21.52
2024-01-18T15:11:11.307Z,21.52
2024-01-18T15:12:11.317Z,21.53
2024-01-18T15:13:11.395Z,21.52
2024-01-18T15:14:11.457Z,21.54
2024-01-18T15:15:11.521Z,21.53
2024-01-18T15:16:13.013Z,21.53
2024-01-18T15:17:11.509Z,21.53
2024-01-18T15:18:11.538Z,21.53
2024-01-18T15:19:17.222Z,21.53
2024-01-18T15:20:12.680Z,21.52
2024-01-18T15:21:11.511Z,21.52
2024-01-18T15:22:11.538Z,21.52
2024-01-18T15:23:12.292Z,21.52
2024-01-18T15:24:11.543Z,21.52
2024-01-18T15:25:11.620Z,21.52
2024-01-18T15:26:11.517Z,21.52
2024-01-18T15:27:11.573Z,21.52
2024-01-18T15:28:11.554Z,21.52
2024-01-18T15:29:11.525Z,21.53
2024-01-18T15:30:11.527Z,21.54
2024-01-18T15:31:11.547Z,21.53
2024-01-18T15:32:11.641Z,21.53
2024-01-18T15:33:11.903Z,21.53
2024-01-18T15:34:11.768Z,21.53
2024-01-18T15:35:12.086Z,21.53
2024-01-18T15:36:11.788Z,21.52
2024-01-18T15:37:11.891Z,21.52
2024-01-18T15:38:11.908Z,21.52
2024-01-18T15:39:11.936Z,21.52
2024-01-18T15:40:12.016Z,21.51
2024-01-18T15:41:12.022Z,21.52
2024-01-18T15:42:12.077Z,21.51
2024-01-18T15:43:12.110Z,21.52
2024-01-18T15:44:12.179Z,21.51
2024-01-18T15:45:12.251Z,21.52
2024-01-18T15:46:12.262Z,21.52
2024-01-18T15:47:12.321Z,21.52
2024-01-18T15:48:12.372Z,21.52
2024-01-18T15:49:12.428Z,21.52
2024-01-18T15:50:12.512Z,21.52
2024-01-18T15:51:12.464Z,21.52
2024-01-18T15:52:12.539Z,21.51
2024-01-18T15:53:12.557Z,21.51
2024-01-18T15:54:12.647Z,21.51
2024-01-18T15:55:12.812Z,21.51
2024-01-18T15:56:12.707Z,21.51
2024-01-18T15:57:12.743Z,21.52
2024-01-18T15:58:12.777Z,21.52
2024-01-18T15:59:12.865Z,21.51
2024-01-18T16:00:12.919Z,21.52
2024-01-18T16:01:13.115Z,21.51
2024-01-18T16:02:12.969Z,21.51
2024-01-18T16:03:12.988Z,21.51
2024-01-18T16:04:13.094Z,21.51
2024-01-18T16:05:13.194Z,21.51
2024-01-18T16:06:13.194Z,21.50
2024-01-18T16:07:13.166Z,21.51
2024-01-18T16:08:13.232Z,21.50
2024-01-18T16:09:13.281Z,21.50
2024-01-18T16:10:13.392Z,21.50
2024-01-18T16:11:13.355Z,21.50
2024-01-18T16:12:13.508Z,21.51
2024-01-18T16:13:13.436Z,21.52
2024-01-18T16:14:13.485Z,21.51
2024-01-18T16:15:13.638Z,21.51
2024-01-18T16:16:13.619Z,21.50
2024-01-18T16:17:13.622Z,21.49
2024-01-18T16:18:13.680Z,21.49
2024-01-18T16:19:13.814Z,21.49
2024-01-18T16:20:13.791Z,21.48
2024-01-18T16:21:13.860Z,21.48
2024-01-18T16:22:13.880Z,21.49
2024-01-18T16:23:13.921Z,21.48
2024-01-18T16:24:13.975Z,21.47
2024-01-18T16:25:14.014Z,21.47
2024-01-18T16:26:14.069Z,21.47
2024-01-18T16:27:14.148Z,21.47
2024-01-18T16:28:14.203Z,21.47
2024-01-18T16:29:14.202Z,21.46
2024-01-18T16:30:20.207Z,21.47
2024-01-18T16:31:15.342Z,21.46
2024-01-18T16:32:14.269Z,21.46
2024-01-18T16:33:14.422Z,21.46
2024-01-18T16:34:14.338Z,21.47
2024-01-18T16:35:14.332Z,21.46
2024-01-18T16:36:14.338Z,21.46
2024-01-18T16:37:14.276Z,21.46
2024-01-18T16:38:14.304Z,21.46
2024-01-18T16:39:14.288Z,21.45
2024-01-18T16:40:14.291Z,21.44
2024-01-18T16:41:14.257Z,21.44
2024-01-18T16:42:14.380Z,21.44
2024-01-18T16:43:14.369Z,21.45
2024-01-18T16:44:14.437Z,21.45
2024-01-18T16:45:14.638Z,21.45
2024-01-18T16:46:14.489Z,21.45
2024-01-18T16:47:14.547Z,21.44
2024-01-18T16:48:14.727Z,21.44
2024-01-18T16:49:14.823Z,21.44
2024-01-18T16:50:14.687Z,21.44
2024-01-18T16:51:14.781Z,21.42
2024-01-18T16:52:14.809Z,21.42
2024-01-18T16:53:14.816Z,21.42
2024-01-18T16:54:14.910Z,21.43
2024-01-18T16:55:14.974Z,21.43
2024-01-18T16:56:14.996Z,21.43
2024-01-18T16:57:22.429Z,21.43
2024-01-18T16:58:16.090Z,21.42
2024-01-18T16:59:15.061Z,21.41
2024-01-18T17:00:15.158Z,21.41
2024-01-18T17:01:15.086Z,21.41
2024-01-18T17:02:15.090Z,21.42
2024-01-18T17:03:15.063Z,21.41
2024-01-18T17:04:15.063Z,21.41
2024-01-18T17:05:15.211Z,21.41
2024-01-18T17:06:15.140Z,21.42
2024-01-18T17:08:15.201Z,21.41
2024-01-18T17:09:15.092Z,21.41
2024-01-18T17:10:15.139Z,21.40
2024-01-18T17:11:20.436Z,21.40
2024-01-18T17:12:16.212Z,21.40
2024-01-18T17:13:15.210Z,21.41
2024-01-18T17:14:15.214Z,21.39
2024-01-18T17:15:15.205Z,21.39
2024-01-18T17:16:15.203Z,21.39